Time;durP1;ratioP1;P1;durP2;ratioP2;P2;SDS_P1;SDS_P2;PMS_P1;PMS_P2;Temp;Humidity;BMP_temperature;BMP_pressure;BME280_temperature;BME280_humidity;BME280_pressure;Samples;Min_cycle;Max_cycle;Signal;HPM_P1;HPM_P2
2023/05/25 00:02:03;;;;;;;7.10;6.03;;;;;;;;;;5001217;28;20030;-86
2023/05/25 00:04:29;;;;;;;9.30;6.10;;;;;;;;;;5001303;28;20018;-86
2023/05/25 00:06:55;;;;;;;10.27;6.47;;;;;;;;;;5001048;28;20113;-87
2023/05/25 00:09:21;;;;;;;9.07;5.90;;;;;;;;;;4984050;28;20030;-87
2023/05/25 00:11:47;;;;;;;6.50;5.60;;;;;;;;;;5000905;28;20038;-86
2023/05/25 00:14:13;;;;;;;7.03;5.90;;;;;;;;;;5001019;28;20021;-86
2023/05/25 00:16:39;;;;;;;7.90;5.38;;;;;;;;;;5000864;28;20058;-86
2023/05/25 00:19:06;;;;;;;13.02;6.38;;;;;;;;;;5001136;28;20031;-86
2023/05/25 00:21:37;;;;;;;7.50;5.28;;;;;;;;;;5001196;28;20026;-86
2023/05/25 00:24:03;;;;;;;9.43;6.30;;;;;;;;;;5000828;28;20337;-86
2023/05/25 00:29:35;;;;;;;7.60;6.03;;;;;;;;;;5001051;28;20073;-87
2023/05/25 00:32:01;;;;;;;11.65;6.57;;;;;;;;;;5001325;28;20080;-87
2023/05/25 00:34:28;;;;;;;12.02;6.50;;;;;;;;;;5000661;28;20070;-87
2023/05/25 00:36:54;;;;;;;11.20;6.40;;;;;;;;;;5000934;28;20070;-87
2023/05/25 00:39:20;;;;;;;10.77;6.57;;;;;;;;;;4983465;28;20022;-88
2023/05/25 00:41:47;;;;;;;10.35;6.47;;;;;;;;;;5000571;28;20096;-88
2023/05/25 00:44:14;;;;;;;11.68;7.28;;;;;;;;;;5000651;28;20041;-88
2023/05/25 00:46:45;;;;;;;11.40;8.52;;;;;;;;;;5000812;28;20030;-88
2023/05/25 00:49:13;;;;;;;11.43;7.50;;;;;;;;;;5000289;28;20081;-87
2023/05/25 00:51:40;;;;;;;15.07;8.23;;;;;;;;;;5000335;28;20092;-87
2023/05/25 00:54:06;;;;;;;20.88;10.98;;;;;;;;;;5000377;28;20033;-86
2023/05/25 00:59:45;;;;;;;23.42;11.75;;;;;;;;;;5000164;28;20038;-89
2023/05/25 01:02:16;;;;;;;24.65;12.05;;;;;;;;;;5000011;28;20105;-89
2023/05/25 01:04:58;;;;;;;21.35;10.50;;;;;;;;;;5000502;28;20034;-89
2023/05/25 01:07:25;;;;;;;18.73;9.90;;;;;;;;;;5000077;28;20401;-88
2023/05/25 01:09:58;;;;;;;14.82;8.95;;;;;;;;;;5000108;28;20058;-88
2023/05/25 01:12:27;;;;;;;11.23;7.25;;;;;;;;;;5000037;28;20019;-89
2023/05/25 01:14:54;;;;;;;12.20;7.53;;;;;;;;;;4982821;28;20396;-89
2023/05/25 01:17:20;;;;;;;9.82;6.57;;;;;;;;;;4976554;28;20043;-89
2023/05/25 01:19:47;;;;;;;8.45;6.50;;;;;;;;;;4962648;28;20054;-88
2023/05/25 01:22:20;;;;;;;9.32;5.78;;;;;;;;;;4980431;28;20023;-89
2023/05/25 01:24:49;;;;;;;7.32;5.85;;;;;;;;;;4980673;28;20037;-88
2023/05/25 01:27:15;;;;;;;7.38;6.03;;;;;;;;;;4963684;28;20093;-89
2023/05/25 01:29:42;;;;;;;8.20;6.38;;;;;;;;;;4980530;28;20027;-89
2023/05/25 01:32:09;;;;;;;10.93;6.95;;;;;;;;;;4980062;28;20433;-89
2023/05/25 01:34:36;;;;;;;9.40;6.68;;;;;;;;;;4980246;28;20283;-89
2023/05/25 01:37:02;;;;;;;13.10;7.10;;;;;;;;;;4980107;28;20405;-90
2023/05/25 01:39:28;;;;;;;8.75;6.78;;;;;;;;;;4962931;28;20065;-89
2023/05/25 01:41:54;;;;;;;9.65;6.60;;;;;;;;;;4980352;28;20114;-88
2023/05/25 01:44:20;;;;;;;13.40;7.15;;;;;;;;;;4962447;28;20433;-89
2023/05/25 01:46:49;;;;;;;8.13;6.70;;;;;;;;;;4979940;28;20043;-88
2023/05/25 01:49:16;;;;;;;7.80;6.35;;;;;;;;;;4979979;28;20366;-90
2023/05/25 01:51:47;;;;;;;13.48;6.78;;;;;;;;;;4979778;28;20034;-90
2023/05/25 01:54:13;;;;;;;;;;;;;;;;;;4980399;28;20026;-89
2023/05/25 01:57:00;;;;;;;10.95;6.88;;;;;;;;;;4979761;28;19910;-89
2023/05/25 01:59:27;;;;;;;9.43;7.03;;;;;;;;;;4979964;28;20485;-90
2023/05/25 02:01:54;;;;;;;8.25;6.65;;;;;;;;;;4979740;28;20034;-90
2023/05/25 02:04:21;;;;;;;7.90;6.80;;;;;;;;;;4979924;28;20046;-90
2023/05/25 02:06:56;;;;;;;10.30;7.32;;;;;;;;;;4979913;28;20163;-90
2023/05/25 02:09:22;;;;;;;14.43;8.35;;;;;;;;;;4962728;28;20483;-90
2023/05/25 02:11:48;;;;;;;8.77;7.10;;;;;;;;;;4979514;28;20429;-89
2023/05/25 02:14:15;;;;;;;9.88;7.38;;;;;;;;;;4978428;28;20027;-90
2023/05/25 02:16:41;;;;;;;8.27;7.47;;;;;;;;;;4980130;28;20031;-89
2023/05/25 02:19:07;;;;;;;11.57;7.47;;;;;;;;;;4999025;28;20033;-91
2023/05/25 02:21:37;;;;;;;12.32;8.60;;;;;;;;;;4981688;28;20068;-90
2023/05/25 02:24:03;;;;;;;14.95;10.25;;;;;;;;;;4998749;28;20157;-90
2023/05/25 02:26:29;;;;;;;11.88;9.32;;;;;;;;;;4998814;28;20026;-91
2023/05/25 02:28:55;;;;;;;11.27;8.40;;;;;;;;;;4998659;28;20086;-90
2023/05/25 02:31:21;;;;;;;9.00;8.10;;;;;;;;;;4998696;28;20045;-90
2023/05/25 02:33:47;;;;;;;9.13;8.23;;;;;;;;;;4998841;28;20033;-90
2023/05/25 02:36:13;;;;;;;9.23;8.05;;;;;;;;;;4998593;28;20034;-90
2023/05/25 02:38:39;;;;;;;11.68;8.40;;;;;;;;;;4998508;28;20022;-89
2023/05/25 02:41:05;;;;;;;12.68;8.40;;;;;;;;;;4998514;28;20050;-90
2023/05/25 02:43:31;;;;;;;10.25;9.00;;;;;;;;;;4998332;28;20037;-91
2023/05/25 02:45:57;;;;;;;10.57;8.68;;;;;;;;;;4998399;28;20038;-89
2023/05/25 02:48:23;;;;;;;10.23;8.98;;;;;;;;;;4998366;28;20446;-89
2023/05/25 02:50:50;;;;;;;12.13;8.65;;;;;;;;;;4998130;28;20022;-90
2023/05/25 02:53:16;;;;;;;11.68;9.00;;;;;;;;;;4998331;28;20316;-91
2023/05/25 02:58:45;;;;;;;13.45;8.70;;;;;;;;;;4998476;28;20113;-90
2023/05/25 03:01:16;;;;;;;12.40;9.38;;;;;;;;;;4980873;28;20441;-90
2023/05/25 03:03:43;;;;;;;13.63;9.48;;;;;;;;;;4998095;28;20417;-89
2023/05/25 03:06:09;;;;;;;11.07;9.30;;;;;;;;;;4998467;28;20030;-89
2023/05/25 03:08:35;;;;;;;12.93;9.20;;;;;;;;;;4997857;28;20026;-89
2023/05/25 03:14:04;;;;;;;13.07;9.80;;;;;;;;;;4998253;28;20085;-90
2023/05/25 03:16:34;;;;;;;12.68;10.05;;;;;;;;;;4998028;28;20069;-89
2023/05/25 03:19:00;;;;;;;13.30;9.88;;;;;;;;;;4998013;28;20066;-89
2023/05/25 03:21:26;;;;;;;13.63;9.23;;;;;;;;;;4998025;28;20045;-89
2023/05/25 03:23:52;;;;;;;13.68;10.10;;;;;;;;;;4998444;28;20045;-89
2023/05/25 03:26:18;;;;;;;15.27;10.25;;;;;;;;;;5001054;28;20298;-90
2023/05/25 03:28:44;;;;;;;15.35;10.70;;;;;;;;;;5002147;28;20080;-89
2023/05/25 03:31:11;;;;;;;12.85;10.10;;;;;;;;;;4982464;28;20050;-90
2023/05/25 03:33:38;;;;;;;16.35;10.60;;;;;;;;;;4993742;28;20030;-90
2023/05/25 03:36:07;;;;;;;12.10;9.38;;;;;;;;;;5001961;28;20026;-89
2023/05/25 03:38:34;;;;;;;18.20;11.30;;;;;;;;;;4984588;28;20028;-89
2023/05/25 03:47:53;;;;;;;18.10;9.98;;;;;;;;;;4982122;28;20329;-88
2023/05/25 03:50:19;;;;;;;14.43;10.95;;;;;;;;;;4993416;28;20034;-89
2023/05/25 03:52:45;;;;;;;15.80;10.75;;;;;;;;;;5001652;28;20381;-90
2023/05/25 03:58:33;;;;;;;17.80;11.27;;;;;;;;;;5001593;28;20443;-89
2023/05/25 04:01:00;;;;;;;16.30;11.57;;;;;;;;;;4981725;28;20110;-90
2023/05/25 04:03:26;;;;;;;16.23;11.57;;;;;;;;;;4982259;28;20035;-90
2023/05/25 04:05:52;;;;;;;13.13;10.90;;;;;;;;;;4982003;28;20027;-88
2023/05/25 04:08:18;;;;;;;16.33;11.27;;;;;;;;;;4990648;28;20066;-89
2023/05/25 04:10:47;;;;;;;15.55;11.63;;;;;;;;;;4983861;28;20038;-89
2023/05/25 04:13:13;;;;;;;14.10;11.63;;;;;;;;;;5001216;28;20050;-89
2023/05/25 04:15:39;;;;;;;17.65;12.05;;;;;;;;;;5001138;28;20034;-90
2023/05/25 04:18:06;;;;;;;15.73;11.95;;;;;;;;;;5000991;28;20043;-89
2023/05/25 04:20:32;;;;;;;14.82;12.45;;;;;;;;;;5001142;28;20409;-89
2023/05/25 04:22:58;;;;;;;14.63;12.02;;;;;;;;;;5001436;28;20030;-89
2023/05/25 04:28:28;;;;;;;17.10;12.65;;;;;;;;;;5000920;28;20077;-90
2023/05/25 04:30:56;;;;;;;17.80;12.40;;;;;;;;;;5000952;28;20033;-89
2023/05/25 04:33:23;;;;;;;15.23;12.00;;;;;;;;;;5000747;28;20023;-89
2023/05/25 04:35:49;;;;;;;17.77;13.30;;;;;;;;;;5000488;28;20061;-88
2023/05/25 04:38:16;;;;;;;18.52;13.95;;;;;;;;;;4982677;28;20026;-88
2023/05/25 04:40:45;;;;;;;19.15;13.63;;;;;;;;;;4983660;28;20413;-88
2023/05/25 04:43:12;;;;;;;16.10;12.63;;;;;;;;;;4983380;28;20040;-88
2023/05/25 04:45:38;;;;;;;17.45;13.30;;;;;;;;;;4983376;28;20034;-89
2023/05/25 04:48:06;;;;;;;20.48;13.57;;;;;;;;;;4983429;28;20029;-88
2023/05/25 04:50:32;;;;;;;21.88;14.32;;;;;;;;;;4983400;28;20337;-91
2023/05/25 04:52:58;;;;;;;18.55;13.38;;;;;;;;;;5000743;28;20385;-90
2023/05/25 04:55:42;;;;;;;17.70;14.23;;;;;;;;;;4983144;28;20029;-90
2023/05/25 04:58:08;;;;;;;17.85;14.25;;;;;;;;;;5000368;28;20050;-91
2023/05/25 05:00:35;;;;;;;19.85;14.38;;;;;;;;;;4983567;28;20026;-90
2023/05/25 05:03:01;;;;;;;17.30;14.93;;;;;;;;;;5000635;28;20041;-90
2023/05/25 05:05:27;;;;;;;19.88;15.40;;;;;;;;;;5000407;28;20029;-90
2023/05/25 05:07:53;;;;;;;17.75;15.43;;;;;;;;;;5000318;28;20034;-89
2023/05/25 05:10:19;;;;;;;20.33;16.58;;;;;;;;;;5000241;28;20030;-90
2023/05/25 05:12:45;;;;;;;21.73;16.23;;;;;;;;;;4982960;28;20125;-89
2023/05/25 05:15:11;;;;;;;19.50;15.95;;;;;;;;;;4999866;28;20041;-89
2023/05/25 05:17:37;;;;;;;21.75;16.33;;;;;;;;;;4982879;28;20499;-89
2023/05/25 05:20:04;;;;;;;21.00;16.42;;;;;;;;;;4982896;28;20038;-90
2023/05/25 05:22:30;;;;;;;19.63;16.02;;;;;;;;;;4999885;28;20320;-90
2023/05/25 05:24:56;;;;;;;22.67;16.90;;;;;;;;;;4999831;28;20050;-90
2023/05/25 05:33:30;;;;;;;19.50;17.02;;;;;;;;;;4999585;28;20081;-89
2023/05/25 05:35:56;;;;;;;23.02;16.75;;;;;;;;;;4999565;28;20117;-89
2023/05/25 05:38:22;;;;;;;25.10;17.80;;;;;;;;;;4982383;28;20037;-90
2023/05/25 05:40:48;;;;;;;22.58;17.00;;;;;;;;;;5000054;28;20053;-90
2023/05/25 05:43:14;;;;;;;22.05;16.75;;;;;;;;;;4999527;28;20030;-90
2023/05/25 05:45:40;;;;;;;28.52;18.77;;;;;;;;;;4999343;28;20160;-89
2023/05/25 05:48:10;;;;;;;27.30;18.10;;;;;;;;;;4981771;28;20019;-89
2023/05/25 05:50:39;;;;;;;22.08;17.40;;;;;;;;;;4999544;28;20109;-88
2023/05/25 05:53:05;;;;;;;23.60;17.73;;;;;;;;;;4999132;28;20033;-88
2023/05/25 05:55:32;;;;;;;24.08;17.63;;;;;;;;;;4999387;28;20411;-88
2023/05/25 05:57:58;;;;;;;23.60;17.23;;;;;;;;;;4999555;28;20026;-88
2023/05/25 06:00:24;;;;;;;24.35;17.08;;;;;;;;;;4999132;28;20030;-88
2023/05/25 06:02:50;;;;;;;23.58;17.13;;;;;;;;;;4998725;28;20044;-88
2023/05/25 06:05:18;;;;;;;22.77;17.60;;;;;;;;;;4982067;28;20065;-88
2023/05/25 06:07:44;;;;;;;22.80;16.75;;;;;;;;;;4999260;28;20035;-88
2023/05/25 06:10:11;;;;;;;24.27;17.10;;;;;;;;;;4981838;28;20030;-88
2023/05/25 06:12:37;;;;;;;22.90;17.45;;;;;;;;;;4999015;28;20038;-89
2023/05/25 06:15:03;;;;;;;19.38;17.27;;;;;;;;;;4998897;28;20329;-88
2023/05/25 06:17:29;;;;;;;25.52;17.52;;;;;;;;;;4998722;28;20059;-88
2023/05/25 06:19:56;;;;;;;24.75;18.58;;;;;;;;;;4998951;28;20058;-88
2023/05/25 06:22:24;;;;;;;20.20;17.25;;;;;;;;;;4998820;28;20057;-88
2023/05/25 06:24:50;;;;;;;24.27;18.85;;;;;;;;;;4998967;28;20027;-88
2023/05/25 06:30:20;;;;;;;20.50;17.48;;;;;;;;;;4998908;28;20038;-88
2023/05/25 06:32:46;;;;;;;19.77;17.40;;;;;;;;;;4998658;28;20069;-89
2023/05/25 06:35:18;;;;;;;28.33;18.15;;;;;;;;;;4981378;28;20143;-91
2023/05/25 06:37:44;;;;;;;25.00;17.98;;;;;;;;;;4998467;28;20069;-88
2023/05/25 06:40:11;;;;;;;21.02;17.48;;;;;;;;;;4981294;28;20026;-88
2023/05/25 06:42:37;;;;;;;24.75;19.88;;;;;;;;;;4981204;28;20144;-90
2023/05/25 06:45:03;;;;;;;20.98;16.98;;;;;;;;;;4998480;28;20158;-89
2023/05/25 06:47:30;;;;;;;25.42;17.65;;;;;;;;;;4998174;28;20022;-89
2023/05/25 06:49:56;;;;;;;24.75;18.23;;;;;;;;;;4998378;28;20424;-89
2023/05/25 06:52:22;;;;;;;23.13;17.95;;;;;;;;;;4998227;28;20026;-88
2023/05/25 06:54:48;;;;;;;22.98;16.98;;;;;;;;;;4998637;28;20032;-89
2023/05/25 07:00:18;;;;;;;22.08;17.10;;;;;;;;;;4998090;28;20141;-88
2023/05/25 07:02:44;;;;;;;23.75;17.67;;;;;;;;;;4981314;28;20038;-88
2023/05/25 07:05:10;;;;;;;19.25;16.92;;;;;;;;;;4981221;28;20062;-88
2023/05/25 07:07:36;;;;;;;19.20;16.58;;;;;;;;;;4998063;28;20036;-88
2023/05/25 07:10:03;;;;;;;18.55;16.45;;;;;;;;;;4998340;28;20038;-88
2023/05/25 07:12:48;;;;;;;20.73;16.05;;;;;;;;;;4998125;28;20030;-87
2023/05/25 07:15:15;;;;;;;16.67;14.45;;;;;;;;;;4980924;28;20432;-87
2023/05/25 07:17:41;;;;;;;17.80;15.60;;;;;;;;;;4980251;28;20074;-88
2023/05/25 07:20:07;;;;;;;20.05;16.30;;;;;;;;;;4997864;28;20333;-89
2023/05/25 07:22:33;;;;;;;19.58;17.30;;;;;;;;;;4997940;28;20030;-88
2023/05/25 07:24:59;;;;;;;22.05;16.77;;;;;;;;;;4998045;28;20030;-90
2023/05/25 07:27:26;;;;;;;20.38;16.67;;;;;;;;;;4998158;28;20117;-90
2023/05/25 07:29:52;;;;;;;19.40;15.90;;;;;;;;;;4998176;28;20054;-88
2023/05/25 07:32:18;;;;;;;15.73;14.13;;;;;;;;;;4998333;28;20026;-89
2023/05/25 07:34:44;;;;;;;13.50;12.15;;;;;;;;;;4998294;28;20026;-89
2023/05/25 07:37:12;;;;;;;13.88;12.25;;;;;;;;;;4997607;28;20021;-88
2023/05/25 07:39:39;;;;;;;20.80;14.25;;;;;;;;;;4980749;28;20424;-89
2023/05/25 07:42:05;;;;;;;21.83;14.25;;;;;;;;;;4998290;28;20105;-89
2023/05/25 07:44:31;;;;;;;17.00;13.25;;;;;;;;;;4997850;28;20030;-88
2023/05/25 07:46:57;;;;;;;15.40;12.73;;;;;;;;;;4997806;28;20046;-90
2023/05/25 07:49:23;;;;;;;16.33;12.57;;;;;;;;;;4997602;28;20026;-88
2023/05/25 07:51:49;;;;;;;19.70;13.05;;;;;;;;;;4980396;28;20041;-88
2023/05/25 07:54:15;;;;;;;15.52;12.52;;;;;;;;;;4980510;28;20030;-88
2023/05/25 07:56:41;;;;;;;19.20;13.25;;;;;;;;;;4980652;28;20023;-88
2023/05/25 07:59:08;;;;;;;17.25;14.05;;;;;;;;;;4997749;28;20033;-88
2023/05/25 08:01:35;;;;;;;17.00;13.40;;;;;;;;;;4998048;28;20113;-88
2023/05/25 08:04:01;;;;;;;17.65;13.88;;;;;;;;;;4980589;28;20029;-89
2023/05/25 08:06:27;;;;;;;18.67;12.93;;;;;;;;;;4980482;28;20372;-87
2023/05/25 08:08:53;;;;;;;17.00;13.57;;;;;;;;;;4997904;28;20314;-89
2023/05/25 08:11:23;;;;;;;15.43;13.35;;;;;;;;;;4999117;28;20018;-85
2023/05/25 08:13:49;;;;;;;15.77;13.63;;;;;;;;;;5000960;28;20057;-87
2023/05/25 08:16:16;;;;;;;21.35;13.98;;;;;;;;;;5000847;28;20026;-88
2023/05/25 08:18:45;;;;;;;16.73;12.55;;;;;;;;;;5000578;28;20058;-88
2023/05/25 08:21:11;;;;;;;18.42;14.13;;;;;;;;;;5000955;28;20026;-86
2023/05/25 08:23:41;;;;;;;14.80;12.70;;;;;;;;;;4983808;28;20150;-88
2023/05/25 08:26:08;;;;;;;17.42;13.35;;;;;;;;;;5001007;28;20034;-88
2023/05/25 08:28:34;;;;;;;14.43;12.60;;;;;;;;;;4983871;28;20030;-88
2023/05/25 08:31:00;;;;;;;16.45;11.90;;;;;;;;;;5000859;28;20105;-88
2023/05/25 08:33:26;;;;;;;16.23;12.23;;;;;;;;;;5000739;28;20029;-89
2023/05/25 08:35:52;;;;;;;13.73;11.60;;;;;;;;;;5000284;28;20060;-88
2023/05/25 08:38:18;;;;;;;13.75;10.95;;;;;;;;;;5000755;28;20436;-87
2023/05/25 08:40:45;;;;;;;14.45;12.32;;;;;;;;;;4983536;28;20019;-88
2023/05/25 08:43:11;;;;;;;14.65;10.63;;;;;;;;;;4983639;28;20034;-88
2023/05/25 08:45:37;;;;;;;14.35;10.35;;;;;;;;;;5000765;28;20030;-88
2023/05/25 08:48:04;;;;;;;12.50;9.45;;;;;;;;;;4983628;28;20146;-87
2023/05/25 08:50:30;;;;;;;12.48;9.38;;;;;;;;;;5000054;28;20054;-87
2023/05/25 08:52:57;;;;;;;13.70;9.45;;;;;;;;;;5000398;28;20023;-86
2023/05/25 08:55:26;;;;;;;12.60;8.32;;;;;;;;;;4983299;28;20069;-87
2023/05/25 08:57:54;;;;;;;10.10;8.45;;;;;;;;;;4983236;28;20325;-88
2023/05/25 09:00:33;;;;;;;12.15;8.75;;;;;;;;;;5000537;28;20093;-88
2023/05/25 09:03:05;;;;;;;17.23;8.73;;;;;;;;;;4983063;28;20026;-87
2023/05/25 09:05:32;;;;;;;9.52;7.32;;;;;;;;;;5000341;28;20054;-86
2023/05/25 09:07:59;;;;;;;13.20;7.68;;;;;;;;;;5000345;28;20022;-87
2023/05/25 09:10:27;;;;;;;10.98;7.63;;;;;;;;;;4982210;28;20037;-86
2023/05/25 09:12:56;;;;;;;11.23;7.20;;;;;;;;;;5000062;28;20069;-86
2023/05/25 09:15:22;;;;;;;13.45;8.18;;;;;;;;;;4999886;28;20064;-87
2023/05/25 09:17:48;;;;;;;8.82;7.63;;;;;;;;;;4999754;28;20058;-87
2023/05/25 09:20:14;;;;;;;8.13;7.10;;;;;;;;;;4999482;28;20022;-86
2023/05/25 09:22:45;;;;;;;10.15;6.97;;;;;;;;;;4999146;28;20037;-87
2023/05/25 09:25:13;;;;;;;11.10;7.03;;;;;;;;;;4996788;28;20436;-85
2023/05/25 09:27:42;;;;;;;11.63;7.10;;;;;;;;;;4981775;28;20050;-85
2023/05/25 09:30:08;;;;;;;11.02;6.38;;;;;;;;;;4982065;28;20059;-84
2023/05/25 09:32:35;;;;;;;12.20;6.35;;;;;;;;;;4981452;28;20088;-85
2023/05/25 09:35:11;;;;;;;9.80;6.40;;;;;;;;;;4982164;28;20022;-85
2023/05/25 09:37:37;;;;;;;8.38;6.10;;;;;;;;;;4999358;28;20437;-85
2023/05/25 09:40:05;;;;;;;8.85;6.22;;;;;;;;;;4998753;28;20416;-83
2023/05/25 09:42:31;;;;;;;8.77;5.80;;;;;;;;;;4996133;28;20026;-83
2023/05/25 09:44:58;;;;;;;7.63;6.22;;;;;;;;;;4998626;28;20041;-83
2023/05/25 09:47:25;;;;;;;7.50;6.03;;;;;;;;;;4981058;28;20120;-84
2023/05/25 09:49:51;;;;;;;12.80;5.82;;;;;;;;;;4998712;28;20045;-83
2023/05/25 09:52:17;;;;;;;7.93;5.35;;;;;;;;;;4981582;28;20524;-84
2023/05/25 09:54:45;;;;;;;13.35;5.90;;;;;;;;;;4999212;28;20065;-85
2023/05/25 09:57:11;;;;;;;17.30;5.40;;;;;;;;;;4998654;28;20462;-85
2023/05/25 09:59:37;;;;;;;15.02;5.65;;;;;;;;;;4998751;28;20030;-85
2023/05/25 10:02:06;;;;;;;7.15;5.00;;;;;;;;;;4999028;28;20121;-84
2023/05/25 10:04:32;;;;;;;9.80;5.10;;;;;;;;;;4998575;28;20051;-84
2023/05/25 10:07:00;;;;;;;12.52;4.72;;;;;;;;;;4998169;28;20034;-83
2023/05/25 10:09:28;;;;;;;6.65;5.07;;;;;;;;;;4980901;28;20031;-83
2023/05/25 10:11:56;;;;;;;7.07;5.30;;;;;;;;;;4998516;28;20484;-84
2023/05/25 10:14:24;;;;;;;7.65;4.78;;;;;;;;;;4998137;28;20032;-84
2023/05/25 10:16:52;;;;;;;6.20;4.30;;;;;;;;;;4980778;28;20015;-84
2023/05/25 10:19:20;;;;;;;9.27;5.30;;;;;;;;;;4998380;28;20027;-84
2023/05/25 10:21:51;;;;;;;7.32;4.65;;;;;;;;;;4998478;28;20026;-85
2023/05/25 10:24:24;;;;;;;8.52;4.80;;;;;;;;;;4998765;28;20532;-85
2023/05/25 10:26:53;;;;;;;6.38;4.53;;;;;;;;;;4998222;28;20041;-85
2023/05/25 10:29:20;;;;;;;9.32;4.72;;;;;;;;;;4998802;28;20022;-85
2023/05/25 10:31:46;;;;;;;6.18;4.57;;;;;;;;;;4998291;28;20032;-86
2023/05/25 10:34:13;;;;;;;8.23;4.50;;;;;;;;;;4997859;28;20018;-86
2023/05/25 10:36:40;;;;;;;5.13;3.70;;;;;;;;;;4980374;28;20030;-85
2023/05/25 10:39:08;;;;;;;4.95;4.28;;;;;;;;;;4998371;28;20409;-84
2023/05/25 10:41:34;;;;;;;5.72;4.03;;;;;;;;;;4998503;28;20022;-86
2023/05/25 10:44:01;;;;;;;7.30;4.60;;;;;;;;;;4998450;28;20026;-86
2023/05/25 10:46:28;;;;;;;5.95;4.10;;;;;;;;;;4997800;28;20058;-86
2023/05/25 10:49:00;;;;;;;9.32;4.28;;;;;;;;;;4998084;28;20038;-85
2023/05/25 10:51:36;;;;;;;4.50;3.97;;;;;;;;;;4997691;28;20185;-85
2023/05/25 10:54:02;;;;;;;9.05;4.93;;;;;;;;;;4998364;28;20041;-85
2023/05/25 10:56:38;;;;;;;8.73;4.45;;;;;;;;;;4980836;28;20065;-85
2023/05/25 10:59:04;;;;;;;6.60;4.30;;;;;;;;;;4980764;28;20053;-85
2023/05/25 11:01:32;;;;;;;5.10;4.05;;;;;;;;;;4997952;28;20175;-85
2023/05/25 11:04:16;;;;;;;5.28;4.32;;;;;;;;;;4997872;28;20030;-85
2023/05/25 11:06:45;;;;;;;4.78;4.10;;;;;;;;;;4993638;28;20031;-86
2023/05/25 11:09:23;;;;;;;7.00;4.43;;;;;;;;;;4961685;28;20129;-86
2023/05/25 11:11:51;;;;;;;9.32;4.28;;;;;;;;;;4961466;28;20437;-86
2023/05/25 11:14:24;;;;;;;6.60;4.43;;;;;;;;;;4975554;28;20113;-86
2023/05/25 11:17:12;;;;;;;6.15;4.53;;;;;;;;;;4997679;28;20046;-85
2023/05/25 11:19:42;;;;;;;7.82;4.53;;;;;;;;;;4997953;28;20023;-85
2023/05/25 11:22:15;;;;;;;7.78;4.45;;;;;;;;;;4980746;28;20058;-86
2023/05/25 11:24:44;;;;;;;6.68;4.30;;;;;;;;;;4997908;28;20042;-86
2023/05/25 11:27:10;;;;;;;5.88;4.15;;;;;;;;;;4998325;28;20034;-86
2023/05/25 11:29:37;;;;;;;13.77;4.70;;;;;;;;;;4997812;28;20417;-86
2023/05/25 11:32:03;;;;;;;4.95;3.55;;;;;;;;;;4997582;28;20026;-86
2023/05/25 11:34:33;;;;;;;6.47;3.97;;;;;;;;;;4980955;28;20378;-87
2023/05/25 11:37:02;;;;;;;4.00;3.55;;;;;;;;;;4996976;28;20030;-84
2023/05/25 11:39:29;;;;;;;10.25;4.43;;;;;;;;;;4996990;28;20034;-84
2023/05/25 11:41:56;;;;;;;7.05;4.28;;;;;;;;;;4980420;28;20022;-85
2023/05/25 11:44:27;;;;;;;5.47;4.00;;;;;;;;;;4980159;28;20022;-85
2023/05/25 11:46:56;;;;;;;9.67;4.20;;;;;;;;;;4981840;28;20031;-84
2023/05/25 11:49:23;;;;;;;6.18;3.92;;;;;;;;;;5001504;28;20085;-85
2023/05/25 11:51:49;;;;;;;4.97;4.38;;;;;;;;;;5001138;28;20034;-85
2023/05/25 11:54:25;;;;;;;5.20;4.68;;;;;;;;;;5000624;28;20022;-85
2023/05/25 11:56:52;;;;;;;6.07;4.68;;;;;;;;;;4983977;28;20031;-85
2023/05/25 11:59:18;;;;;;;7.35;3.75;;;;;;;;;;5001152;28;20033;-84
2023/05/25 12:01:54;;;;;;;7.63;4.32;;;;;;;;;;5000860;28;20038;-84
2023/05/25 12:04:20;;;;;;;12.85;4.15;;;;;;;;;;4981517;28;20031;-84
2023/05/25 12:06:48;;;;;;;14.65;4.65;;;;;;;;;;4970304;28;20022;-84
2023/05/25 12:09:18;;;;;;;21.30;4.63;;;;;;;;;;5000446;28;20031;-84
2023/05/25 12:11:44;;;;;;;22.63;4.75;;;;;;;;;;5000481;28;20436;-84
2023/05/25 12:14:11;;;;;;;8.90;3.97;;;;;;;;;;5000778;28;20022;-84
2023/05/25 12:16:37;;;;;;;32.78;5.93;;;;;;;;;;5000671;28;20026;-85
2023/05/25 12:19:04;;;;;;;57.88;7.80;;;;;;;;;;5000679;28;20046;-85
2023/05/25 12:21:31;;;;;;;10.85;3.90;;;;;;;;;;4983350;28;20022;-84
2023/05/25 12:23:57;;;;;;;33.90;5.18;;;;;;;;;;5000575;28;20358;-84
2023/05/25 12:26:23;;;;;;;5.53;3.13;;;;;;;;;;5000560;28;20034;-84
2023/05/25 12:29:06;;;;;;;26.73;5.20;;;;;;;;;;5000377;28;20038;-85
2023/05/25 12:31:34;;;;;;;132.30;11.75;;;;;;;;;;5000441;28;20030;-85
2023/05/25 12:34:06;;;;;;;10.23;3.92;;;;;;;;;;5000037;28;20117;-87
2023/05/25 12:36:38;;;;;;;14.82;4.80;;;;;;;;;;4999606;28;20109;-85
2023/05/25 12:39:05;;;;;;;17.83;4.00;;;;;;;;;;5000079;28;20033;-85
2023/05/25 12:41:31;;;;;;;5.20;3.83;;;;;;;;;;4999426;28;20413;-84
2023/05/25 12:43:58;;;;;;;8.30;4.32;;;;;;;;;;4982716;28;20031;-85
2023/05/25 12:46:24;;;;;;;4.95;3.83;;;;;;;;;;5000569;28;20027;-85
2023/05/25 12:48:51;;;;;;;5.97;3.95;;;;;;;;;;5000299;28;20037;-85
2023/05/25 12:51:17;;;;;;;22.25;4.82;;;;;;;;;;4982819;28;20041;-85
2023/05/25 12:53:49;;;;;;;12.10;4.05;;;;;;;;;;4999404;28;20028;-84
2023/05/25 12:56:18;;;;;;;11.43;4.10;;;;;;;;;;4999642;28;20027;-85
2023/05/25 12:58:44;;;;;;;66.70;7.60;;;;;;;;;;4999226;28;20149;-84
2023/05/25 13:01:11;;;;;;;57.17;6.63;;;;;;;;;;4999521;28;20073;-84
2023/05/25 13:03:37;;;;;;;9.25;3.80;;;;;;;;;;5014624;28;20054;-84
2023/05/25 13:06:03;;;;;;;10.10;4.20;;;;;;;;;;4999358;28;20026;-84
2023/05/25 13:08:29;;;;;;;9.93;4.43;;;;;;;;;;4983539;28;20477;-85
2023/05/25 13:10:56;;;;;;;5.40;3.45;;;;;;;;;;4999265;28;20058;-84
2023/05/25 13:13:40;;;;;;;12.27;4.70;;;;;;;;;;5013532;28;20046;-84
2023/05/25 13:16:08;;;;;;;5.82;4.10;;;;;;;;;;4999393;28;20073;-85
2023/05/25 13:18:35;;;;;;;6.72;4.22;;;;;;;;;;4999320;28;20441;-86
2023/05/25 13:21:01;;;;;;;11.70;4.15;;;;;;;;;;4982007;28;20058;-87
2023/05/25 13:23:27;;;;;;;6.50;4.07;;;;;;;;;;4981911;28;20428;-85
2023/05/25 13:25:53;;;;;;;18.65;4.47;;;;;;;;;;4999670;28;20439;-89
2023/05/25 13:31:25;;;;;;;63.72;7.00;;;;;;;;;;4999984;28;20029;-89
2023/05/25 13:33:51;;;;;;;6.05;3.88;;;;;;;;;;5015012;28;20066;-88
2023/05/25 13:36:17;;;;;;;7.30;4.20;;;;;;;;;;4999700;28;20317;-88
2023/05/25 13:38:43;;;;;;;4.28;3.65;;;;;;;;;;5000045;28;20070;-89
2023/05/25 13:41:12;;;;;;;4.95;4.20;;;;;;;;;;4982585;28;20022;-89
2023/05/25 13:46:41;;;;;;;7.03;4.13;;;;;;;;;;4999783;28;20100;-89
2023/05/25 13:49:07;;;;;;;4.93;4.03;;;;;;;;;;4999642;28;20058;-86
2023/05/25 13:51:34;;;;;;;7.50;4.47;;;;;;;;;;4999554;28;20027;-87
2023/05/25 13:54:00;;;;;;;5.38;4.07;;;;;;;;;;4998877;28;20034;-88
2023/05/25 13:56:27;;;;;;;6.72;4.28;;;;;;;;;;4982450;28;20029;-87
2023/05/25 14:01:59;;;;;;;5.35;4.63;;;;;;;;;;4999030;28;20029;-85
2023/05/25 14:04:25;;;;;;;5.75;4.43;;;;;;;;;;4998599;28;20027;-88
2023/05/25 14:06:51;;;;;;;8.18;4.30;;;;;;;;;;5014615;28;20081;-92
2023/05/25 14:09:17;;;;;;;6.85;4.07;;;;;;;;;;5014162;28;20054;-86
2023/05/25 14:11:53;;;;;;;6.00;3.95;;;;;;;;;;4980601;28;20475;-90
2023/05/25 14:14:38;;;;;;;5.60;3.58;;;;;;;;;;4998376;28;20034;-86
2023/05/25 14:17:04;;;;;;;9.80;4.47;;;;;;;;;;4996949;28;20044;-86
2023/05/25 14:19:33;;;;;;;5.85;3.63;;;;;;;;;;4998459;28;20197;-87
2023/05/25 14:21:59;;;;;;;5.28;4.10;;;;;;;;;;4998363;28;20429;-86
2023/05/25 14:24:25;;;;;;;5.22;4.07;;;;;;;;;;4998023;28;20034;-86
2023/05/25 14:26:51;;;;;;;6.60;3.85;;;;;;;;;;4998562;28;20111;-86
2023/05/25 14:29:17;;;;;;;7.82;3.92;;;;;;;;;;4998728;28;20046;-86
2023/05/25 14:31:44;;;;;;;7.18;3.88;;;;;;;;;;4998827;28;20109;-86
2023/05/25 14:34:13;;;;;;;5.40;4.28;;;;;;;;;;4981261;28;20034;-86
2023/05/25 14:36:41;;;;;;;5.38;4.30;;;;;;;;;;4998103;28;20050;-86
2023/05/25 14:39:07;;;;;;;7.60;4.40;;;;;;;;;;4998007;28;20134;-89
2023/05/25 14:41:33;;;;;;;8.50;4.60;;;;;;;;;;4998902;28;20038;-88
2023/05/25 14:43:59;;;;;;;6.50;4.07;;;;;;;;;;4998391;28;20360;-88
2023/05/25 14:46:25;;;;;;;7.53;4.50;;;;;;;;;;4998200;28;20337;-88
2023/05/25 14:48:52;;;;;;;6.90;4.60;;;;;;;;;;4981090;28;20038;-87
2023/05/25 14:51:18;;;;;;;9.77;4.60;;;;;;;;;;4998247;28;20026;-89
2023/05/25 14:53:44;;;;;;;10.80;4.90;;;;;;;;;;4998030;28;20078;-87
2023/05/25 14:56:10;;;;;;;9.80;4.47;;;;;;;;;;4981252;28;20027;-88
2023/05/25 15:01:46;;;;;;;9.38;4.22;;;;;;;;;;4998404;28;20029;-88
2023/05/25 15:04:12;;;;;;;7.82;3.55;;;;;;;;;;4997783;28;20023;-84
2023/05/25 15:06:39;;;;;;;6.40;3.80;;;;;;;;;;4998072;28;20076;-85
2023/05/25 15:09:05;;;;;;;5.80;3.75;;;;;;;;;;4997682;28;20417;-84
2023/05/25 15:11:31;;;;;;;4.38;3.97;;;;;;;;;;4997469;28;20030;-84
2023/05/25 15:13:57;;;;;;;7.60;3.90;;;;;;;;;;4997103;28;20038;-84
2023/05/25 15:27:19;;;;;;;7.10;4.30;;;;;;;;;;5135528;27;20363;-83
2023/05/25 15:29:45;;;;;;;6.50;4.10;;;;;;;;;;5135579;28;20027;-83
2023/05/25 15:32:12;;;;;;;6.38;4.55;;;;;;;;;;5135501;28;20020;-83
2023/05/25 15:34:39;;;;;;;14.00;4.70;;;;;;;;;;5117245;28;20164;-84